Time;durP1;ratioP1;P1;durP2;ratioP2;P2;SDS_P1;SDS_P2;PMS_P1;PMS_P2;Temp;Humidity;BMP_temperature;BMP_pressure;BME280_temperature;BME280_humidity;BME280_pressure;Samples;Min_cycle;Max_cycle;Signal;HPM_P1;HPM_P2
2020/12/14 00:02:21;;;;;;;11.52;7.00;;;6.90;99.90;;;;;;5005212;28;20046;-76
2020/12/14 00:04:47;;;;;;;16.63;7.35;;;6.90;99.90;;;;;;5001962;28;20049;-76
2020/12/14 00:07:15;;;;;;;14.23;7.45;;;6.80;99.90;;;;;;4989259;28;20045;-75
2020/12/14 00:09:42;;;;;;;14.00;7.55;;;6.90;99.90;;;;;;4987650;28;20046;-75
2020/12/14 00:12:10;;;;;;;13.52;6.75;;;7.00;99.90;;;;;;5003321;28;20050;-75
2020/12/14 00:14:37;;;;;;;14.70;7.22;;;7.00;99.90;;;;;;5005533;28;20519;-75
2020/12/14 00:17:03;;;;;;;12.77;6.35;;;6.90;99.90;;;;;;5003536;28;20331;-76
2020/12/14 00:19:30;;;;;;;14.45;6.93;;;7.00;99.90;;;;;;5008896;28;20038;-75
2020/12/14 00:21:56;;;;;;;11.70;6.30;;;7.00;99.90;;;;;;5005397;28;20057;-75
2020/12/14 00:24:23;;;;;;;12.02;5.57;;;7.00;99.90;;;;;;5002081;28;20061;-76
2020/12/14 00:26:50;;;;;;;10.10;5.82;;;7.10;99.90;;;;;;5003353;28;20054;-75
2020/12/14 00:29:17;;;;;;;10.82;5.65;;;7.10;99.90;;;;;;5007329;28;20702;-75
2020/12/14 00:31:44;;;;;;;9.07;5.15;;;6.90;99.90;;;;;;5010864;28;20041;-75
2020/12/14 00:34:10;;;;;;;8.10;5.03;;;6.90;99.90;;;;;;5003318;28;20046;-75
2020/12/14 00:36:57;;;;;;;8.32;4.90;;;6.90;99.90;;;;;;5000401;28;20196;-75
2020/12/14 00:39:23;;;;;;;12.73;5.60;;;6.80;99.90;;;;;;5009555;28;20046;-76
2020/12/14 00:41:49;;;;;;;11.77;6.28;;;6.60;99.90;;;;;;5004235;28;20053;-76
2020/12/14 00:44:16;;;;;;;9.35;5.32;;;6.60;99.90;;;;;;4992187;28;20133;-75
2020/12/14 00:46:45;;;;;;;11.25;5.80;;;6.80;99.90;;;;;;5003520;28;20068;-75
2020/12/14 00:49:12;;;;;;;10.60;5.55;;;6.80;99.90;;;;;;4972912;28;20058;-75
2020/12/14 00:51:39;;;;;;;9.77;5.93;;;6.80;99.90;;;;;;4991842;28;20054;-75
2020/12/14 00:54:07;;;;;;;10.27;5.13;;;6.80;99.90;;;;;;5004879;28;20053;-75
2020/12/14 00:56:34;;;;;;;11.07;5.35;;;6.90;99.90;;;;;;5007026;28;20054;-74
2020/12/14 00:59:01;;;;;;;9.90;4.85;;;6.90;99.90;;;;;;4989861;28;20410;-75
2020/12/14 01:01:28;;;;;;;9.98;5.40;;;6.80;99.90;;;;;;4991215;28;20041;-75
2020/12/14 01:03:55;;;;;;;7.63;4.53;;;6.70;99.90;;;;;;4990775;28;20400;-75
2020/12/14 01:06:22;;;;;;;9.15;4.55;;;6.80;99.90;;;;;;5003659;28;20046;-75
2020/12/14 01:08:50;;;;;;;9.60;4.82;;;6.90;99.90;;;;;;5005738;28;20482;-74
2020/12/14 01:11:23;;;;;;;7.13;4.72;;;6.80;99.90;;;;;;4988464;28;20050;-75
2020/12/14 01:13:49;;;;;;;10.95;4.88;;;6.70;99.90;;;;;;4987700;28;20057;-75
2020/12/14 01:16:16;;;;;;;8.98;4.85;;;6.90;99.90;;;;;;4998634;28;20058;-75
2020/12/14 01:18:46;;;;;;;7.95;4.93;;;6.90;99.90;;;;;;4991654;28;20045;-75
2020/12/14 01:21:12;;;;;;;6.68;4.65;;;7.00;99.90;;;;;;5004536;28;20052;-76
2020/12/14 01:23:38;;;;;;;8.35;4.63;;;6.90;99.90;;;;;;5008651;28;20057;-75
2020/12/14 01:26:05;;;;;;;10.30;4.70;;;6.90;99.90;;;;;;4996242;28;20049;-74
2020/12/14 01:28:31;;;;;;;10.48;4.47;;;6.90;99.90;;;;;;5010705;28;20449;-76
2020/12/14 01:30:58;;;;;;;8.05;4.90;;;7.00;99.90;;;;;;4994710;28;20092;-74
2020/12/14 01:33:24;;;;;;;8.07;4.22;;;6.90;99.90;;;;;;5010059;28;20501;-74
2020/12/14 01:35:51;;;;;;;7.78;4.22;;;6.90;99.90;;;;;;5006660;28;20046;-75
2020/12/14 01:38:19;;;;;;;7.90;4.72;;;6.90;99.90;;;;;;4994159;28;20058;-75
2020/12/14 01:40:45;;;;;;;8.88;4.90;;;6.90;99.90;;;;;;4995024;28;20054;-74
2020/12/14 01:43:12;;;;;;;7.53;4.25;;;7.00;99.90;;;;;;4990652;28;20400;-75
2020/12/14 01:45:39;;;;;;;7.85;4.60;;;7.20;99.90;;;;;;5010203;28;20073;-75
2020/12/14 01:48:08;;;;;;;9.57;4.88;;;7.10;99.90;;;;;;4990253;28;20050;-75
2020/12/14 01:50:35;;;;;;;7.40;4.95;;;7.00;99.90;;;;;;4996155;28;20085;-75
2020/12/14 01:53:05;;;;;;;9.15;5.65;;;7.00;99.90;;;;;;5007318;28;20050;-75
2020/12/14 01:55:36;;;;;;;12.43;5.75;;;7.00;99.90;;;;;;4992273;28;20053;-76
2020/12/14 01:58:03;;;;;;;10.57;5.88;;;7.10;99.90;;;;;;5006735;28;20057;-75
2020/12/14 02:00:29;;;;;;;11.20;5.68;;;7.20;99.90;;;;;;5003492;28;20050;-75
2020/12/14 02:02:56;;;;;;;9.18;4.88;;;7.20;99.90;;;;;;5013088;28;20045;-75
2020/12/14 02:05:22;;;;;;;11.02;4.82;;;7.10;99.90;;;;;;4992938;28;20405;-75
2020/12/14 02:07:49;;;;;;;9.30;5.28;;;7.10;99.90;;;;;;4992033;28;20041;-75
2020/12/14 02:10:15;;;;;;;9.15;4.75;;;7.10;99.90;;;;;;5012977;28;20070;-75
2020/12/14 02:12:42;;;;;;;8.68;5.05;;;7.00;99.90;;;;;;4992631;28;20053;-75
2020/12/14 02:15:09;;;;;;;8.50;5.22;;;7.20;99.90;;;;;;5001958;28;20182;-75
2020/12/14 02:17:35;;;;;;;8.80;5.07;;;7.20;99.90;;;;;;5004663;28;20054;-74
2020/12/14 02:20:04;;;;;;;8.48;5.28;;;7.10;99.90;;;;;;4994475;28;20077;-75
2020/12/14 02:22:31;;;;;;;9.88;5.82;;;7.10;99.90;;;;;;5011340;28;20069;-75
2020/12/14 02:25:01;;;;;;;7.88;4.47;;;7.10;99.90;;;;;;5006747;28;20069;-74
2020/12/14 02:27:29;;;;;;;9.88;5.07;;;6.90;99.90;;;;;;5000661;28;20373;-75
2020/12/14 02:29:56;;;;;;;12.00;5.15;;;7.00;99.90;;;;;;5005405;28;20055;-75
2020/12/14 02:32:25;;;;;;;9.07;5.15;;;7.00;99.90;;;;;;5003761;28;20049;-75
2020/12/14 02:34:53;;;;;;;7.53;4.70;;;7.00;99.90;;;;;;4993159;28;20054;-75
2020/12/14 02:37:22;;;;;;;10.05;4.43;;;7.00;99.90;;;;;;5008434;28;20045;-74
2020/12/14 02:39:49;;;;;;;8.07;4.55;;;7.00;99.90;;;;;;4998423;28;20423;-75
2020/12/14 02:42:20;;;;;;;8.63;4.25;;;7.00;99.90;;;;;;5009953;28;20052;-75
2020/12/14 02:44:48;;;;;;;10.45;4.30;;;7.00;99.90;;;;;;4995338;28;20045;-75
2020/12/14 02:47:15;;;;;;;7.50;4.00;;;6.90;99.90;;;;;;5008957;28;20658;-75
2020/12/14 02:49:43;;;;;;;8.68;3.78;;;6.90;99.90;;;;;;4985945;28;20061;-75
2020/12/14 02:52:10;;;;;;;5.60;3.78;;;6.90;99.90;;;;;;5002106;28;20041;-75
2020/12/14 02:54:38;;;;;;;6.30;3.60;;;6.80;99.90;;;;;;4989798;28;20065;-76
2020/12/14 02:57:05;;;;;;;10.23;3.92;;;6.80;99.90;;;;;;5006050;28;20133;-76
2020/12/14 02:59:31;;;;;;;6.45;3.20;;;6.60;99.90;;;;;;5006400;28;20045;-74
2020/12/14 03:01:58;;;;;;;11.25;4.28;;;6.70;99.90;;;;;;5010088;28;20454;-76
2020/12/14 03:04:25;;;;;;;10.10;3.63;;;6.60;99.90;;;;;;5009788;28;20050;-76
2020/12/14 03:06:51;;;;;;;10.52;3.40;;;6.80;99.90;;;;;;5008625;28;20054;-76
2020/12/14 03:09:20;;;;;;;6.00;3.38;;;6.80;99.90;;;;;;4994055;28;20137;-76
2020/12/14 03:11:48;;;;;;;6.13;3.28;;;6.70;99.90;;;;;;5004518;28;20052;-76
2020/12/14 03:14:16;;;;;;;5.35;3.22;;;6.60;99.90;;;;;;5010711;28;20053;-76
2020/12/14 03:16:46;;;;;;;4.85;3.13;;;6.70;99.90;;;;;;4990874;28;20054;-75
2020/12/14 03:19:14;;;;;;;4.95;3.15;;;6.60;99.90;;;;;;4995891;28;20436;-75
2020/12/14 03:21:41;;;;;;;7.13;3.30;;;6.70;99.90;;;;;;5003378;28;20042;-75
2020/12/14 03:24:08;;;;;;;7.05;3.45;;;6.60;99.90;;;;;;5004959;28;20367;-76
2020/12/14 03:26:35;;;;;;;6.40;4.03;;;6.70;99.90;;;;;;5005803;28;20404;-75
2020/12/14 03:29:02;;;;;;;6.32;3.38;;;6.70;99.90;;;;;;5002282;28;20109;-75
2020/12/14 03:31:28;;;;;;;9.43;3.67;;;6.70;99.90;;;;;;4999499;28;20461;-76
2020/12/14 03:33:55;;;;;;;7.65;3.78;;;6.70;99.90;;;;;;5009593;28;20057;-76
2020/12/14 03:36:22;;;;;;;9.52;3.80;;;6.70;99.90;;;;;;5006545;28;20054;-76
2020/12/14 03:38:53;;;;;;;8.55;4.07;;;6.70;99.90;;;;;;4988319;28;20057;-76
2020/12/14 03:41:21;;;;;;;7.38;3.97;;;6.60;99.90;;;;;;4983444;28;20054;-76
2020/12/14 03:43:52;;;;;;;5.68;3.95;;;6.60;99.90;;;;;;5003996;28;21355;-76
2020/12/14 03:46:23;;;;;;;7.53;4.20;;;6.60;99.90;;;;;;5006698;28;20130;-75
2020/12/14 03:48:55;;;;;;;8.70;4.10;;;6.50;99.90;;;;;;5003392;28;20102;-76
2020/12/14 03:51:23;;;;;;;10.48;4.25;;;6.60;99.90;;;;;;4992080;28;20495;-75
2020/12/14 03:53:50;;;;;;;7.47;4.38;;;6.60;99.90;;;;;;5006705;28;20046;-74
2020/12/14 03:56:21;;;;;;;6.88;4.00;;;6.70;99.90;;;;;;4989031;28;20053;-75
2020/12/14 03:58:47;;;;;;;7.88;4.25;;;6.60;99.90;;;;;;5010069;28;20095;-75
2020/12/14 04:01:19;;;;;;;7.18;4.55;;;6.60;99.90;;;;;;5008028;28;20104;-75
2020/12/14 04:03:46;;;;;;;6.35;4.13;;;6.70;99.90;;;;;;5005589;28;20042;-75
2020/12/14 04:06:22;;;;;;;10.60;4.70;;;6.60;99.90;;;;;;5007548;28;20457;-75
2020/12/14 04:08:50;;;;;;;9.35;4.97;;;6.60;99.90;;;;;;5004125;28;20076;-75
2020/12/14 04:11:17;;;;;;;8.45;4.38;;;6.60;99.90;;;;;;5004944;28;20049;-76
2020/12/14 04:13:44;;;;;;;8.20;4.75;;;6.50;99.90;;;;;;4992444;28;20050;-76
2020/12/14 04:16:10;;;;;;;10.15;4.63;;;6.40;99.90;;;;;;5008216;28;20072;-76
2020/12/14 04:18:38;;;;;;;10.07;4.35;;;6.50;99.90;;;;;;4992261;28;20042;-76
2020/12/14 04:21:05;;;;;;;9.18;4.40;;;6.60;99.90;;;;;;4995787;28;20041;-74
2020/12/14 04:23:32;;;;;;;7.38;4.05;;;6.60;99.90;;;;;;5009491;28;20042;-74
2020/12/14 04:25:58;;;;;;;8.63;4.55;;;6.60;99.90;;;;;;4983044;28;20046;-74
2020/12/14 04:28:25;;;;;;;9.52;4.40;;;6.60;99.90;;;;;;5007578;28;20044;-74
2020/12/14 04:30:51;;;;;;;7.57;4.40;;;6.50;99.90;;;;;;4992721;28;20054;-74
2020/12/14 04:33:19;;;;;;;6.57;3.97;;;6.60;99.90;;;;;;5002948;28;20434;-74
2020/12/14 04:35:45;;;;;;;9.55;4.78;;;6.50;99.90;;;;;;5011575;28;20053;-74
2020/12/14 04:38:12;;;;;;;10.02;4.57;;;6.40;99.90;;;;;;5005171;28;20046;-74
2020/12/14 04:40:38;;;;;;;6.80;4.13;;;6.50;99.90;;;;;;5010011;28;20045;-74
2020/12/14 04:43:08;;;;;;;7.63;4.20;;;6.50;99.90;;;;;;5000611;28;20057;-74
2020/12/14 04:45:35;;;;;;;9.20;4.25;;;6.40;99.90;;;;;;5006642;28;20053;-75
2020/12/14 04:48:02;;;;;;;6.60;4.20;;;6.30;99.90;;;;;;4991342;28;20050;-75
2020/12/14 04:50:28;;;;;;;6.18;3.80;;;6.30;99.90;;;;;;5007266;28;20462;-75
2020/12/14 04:52:56;;;;;;;8.32;3.78;;;6.30;99.90;;;;;;5003900;28;20041;-75
2020/12/14 04:55:24;;;;;;;6.63;3.47;;;6.40;99.90;;;;;;4995655;28;20046;-75
2020/12/14 04:57:51;;;;;;;6.95;3.50;;;6.40;99.90;;;;;;5010116;28;20124;-74
2020/12/14 05:00:21;;;;;;;5.40;3.50;;;6.40;99.90;;;;;;4997490;28;20050;-74
2020/12/14 05:02:55;;;;;;;6.15;3.30;;;6.50;99.90;;;;;;5012885;28;20056;-73
2020/12/14 05:05:25;;;;;;;4.82;3.00;;;6.40;99.90;;;;;;4998096;28;20064;-73
2020/12/14 05:07:51;;;;;;;6.10;3.20;;;6.50;99.90;;;;;;5014443;28;20049;-74
2020/12/14 05:10:26;;;;;;;8.85;3.85;;;6.40;99.90;;;;;;4995366;28;20135;-73
2020/12/14 05:12:53;;;;;;;6.57;3.58;;;6.30;99.90;;;;;;5008051;28;20050;-74
2020/12/14 05:15:26;;;;;;;7.47;3.70;;;6.30;99.90;;;;;;5013231;28;20770;-74
2020/12/14 05:18:10;;;;;;;6.93;3.45;;;6.40;99.90;;;;;;5012594;28;20050;-74
2020/12/14 05:20:37;;;;;;;5.07;3.17;;;6.50;99.90;;;;;;4993410;28;20050;-75
2020/12/14 05:23:06;;;;;;;6.03;2.88;;;6.60;99.90;;;;;;5012740;28;20052;-75
2020/12/14 05:25:32;;;;;;;5.43;3.35;;;6.60;99.90;;;;;;4997146;28;20038;-75
2020/12/14 05:28:12;;;;;;;7.35;3.90;;;6.60;99.90;;;;;;5009019;28;20052;-75
2020/12/14 05:30:48;;;;;;;5.40;3.58;;;6.60;99.90;;;;;;5010324;28;20054;-74
2020/12/14 05:33:26;;;;;;;6.50;3.53;;;6.70;99.90;;;;;;5002724;28;20084;-75
2020/12/14 05:35:53;;;;;;;7.03;3.80;;;6.70;99.90;;;;;;5011356;28;20073;-75
2020/12/14 05:38:28;;;;;;;9.38;4.43;;;6.70;99.90;;;;;;5011939;28;20060;-74
2020/12/14 05:41:00;;;;;;;8.20;4.35;;;6.70;99.90;;;;;;5013500;28;20046;-75
2020/12/14 05:43:29;;;;;;;7.32;4.63;;;6.60;99.90;;;;;;4994287;28;20046;-74
2020/12/14 05:46:09;;;;;;;7.55;4.57;;;6.70;99.90;;;;;;4997868;28;20437;-74
2020/12/14 05:48:36;;;;;;;11.38;4.75;;;6.70;99.90;;;;;;5006267;28;20833;-74
2020/12/14 05:51:04;;;;;;;9.18;4.80;;;6.90;99.90;;;;;;4992539;28;20054;-74
2020/12/14 05:53:38;;;;;;;7.57;4.95;;;6.90;99.90;;;;;;5011941;28;20050;-74
2020/12/14 05:56:07;;;;;;;8.52;5.00;;;6.80;99.90;;;;;;4996096;28;20046;-74
2020/12/14 05:58:35;;;;;;;8.32;4.75;;;6.60;99.90;;;;;;4989740;28;20042;-74
2020/12/14 06:01:04;;;;;;;9.48;5.28;;;6.70;99.90;;;;;;5011096;28;20046;-75
2020/12/14 06:03:31;;;;;;;7.80;4.53;;;6.70;99.90;;;;;;5006902;28;20054;-75
2020/12/14 06:06:02;;;;;;;9.10;5.20;;;6.70;99.90;;;;;;5006821;28;20056;-75
2020/12/14 06:08:47;;;;;;;15.10;5.50;;;6.70;99.90;;;;;;5000750;28;20046;-75
2020/12/14 06:11:15;;;;;;;9.93;4.82;;;6.80;99.90;;;;;;4993427;28;20042;-75
2020/12/14 06:13:55;;;;;;;9.15;5.22;;;6.90;99.90;;;;;;5013579;28;20050;-76
2020/12/14 06:16:24;;;;;;;8.52;4.72;;;6.80;99.90;;;;;;5005950;28;20050;-76
2020/12/14 06:18:51;;;;;;;8.32;4.47;;;6.70;99.90;;;;;;4994583;28;20133;-75
2020/12/14 06:22:02;;;;;;;8.15;4.75;;;6.70;99.90;;;;;;4992669;28;20054;-75
2020/12/14 06:24:30;;;;;;;10.20;4.43;;;6.80;99.90;;;;;;4970496;28;20043;-75
2020/12/14 06:26:58;;;;;;;5.93;3.50;;;6.80;99.90;;;;;;4979572;28;20038;-75
2020/12/14 06:29:30;;;;;;;11.45;4.22;;;6.80;99.90;;;;;;5012570;28;20385;-75
2020/12/14 06:31:57;;;;;;;5.65;3.38;;;6.90;99.90;;;;;;5010665;28;20340;-75
2020/12/14 06:34:32;;;;;;;6.50;3.13;;;6.90;99.90;;;;;;5014228;28;20050;-74
2020/12/14 06:37:03;;;;;;;6.05;3.20;;;6.80;99.90;;;;;;4992881;28;20041;-74
2020/12/14 06:39:32;;;;;;;7.88;3.90;;;6.90;99.90;;;;;;5000710;28;20047;-74
2020/12/14 06:42:07;;;;;;;5.85;3.85;;;6.90;99.90;;;;;;5013066;28;20049;-74
2020/12/14 06:44:34;;;;;;;7.70;3.10;;;7.10;99.90;;;;;;5010008;28;20046;-74
2020/12/14 06:47:38;;;;;;;8.70;3.80;;;7.00;99.90;;;;;;5008885;28;20400;-74
2020/12/14 06:50:26;;;;;;;9.63;3.67;;;7.10;99.90;;;;;;5012545;28;20497;-75
2020/12/14 06:52:53;;;;;;;9.05;3.88;;;7.10;99.90;;;;;;4996792;28;20049;-75
2020/12/14 06:55:42;;;;;;;8.52;3.70;;;7.20;99.90;;;;;;4995588;28;20056;-75
2020/12/14 06:58:10;;;;;;;6.38;3.55;;;7.20;99.90;;;;;;5007986;28;20401;-75
2020/12/14 07:00:37;;;;;;;7.03;4.07;;;7.30;99.90;;;;;;5010875;28;20384;-75
2020/12/14 07:03:04;;;;;;;6.70;3.28;;;7.20;99.90;;;;;;4995258;28;20416;-75
2020/12/14 07:05:30;;;;;;;4.82;3.28;;;7.40;99.90;;;;;;5008040;28;20061;-75
2020/12/14 07:07:57;;;;;;;10.57;3.65;;;7.30;99.90;;;;;;4994891;28;20038;-75
2020/12/14 07:10:25;;;;;;;7.93;3.55;;;7.20;99.90;;;;;;5004198;28;20057;-74
2020/12/14 07:12:52;;;;;;;4.97;3.20;;;7.20;99.90;;;;;;4994498;28;20421;-74
2020/12/14 07:15:35;;;;;;;5.35;3.40;;;7.20;99.90;;;;;;4993774;28;20060;-74
2020/12/14 07:18:06;;;;;;;6.25;3.28;;;7.30;99.90;;;;;;4991538;28;20046;-75
2020/12/14 07:20:34;;;;;;;7.93;3.53;;;7.40;99.90;;;;;;5010559;28;20045;-74
2020/12/14 07:23:05;;;;;;;9.27;3.28;;;7.40;99.90;;;;;;5012368;28;20046;-74
2020/12/14 07:25:32;;;;;;;7.50;3.30;;;7.40;99.90;;;;;;4985230;28;20046;-74
2020/12/14 07:28:00;;;;;;;5.90;3.53;;;7.40;99.90;;;;;;5007301;28;20046;-73
2020/12/14 07:30:27;;;;;;;5.68;3.00;;;7.40;99.90;;;;;;5006830;28;20060;-73
2020/12/14 07:32:53;;;;;;;7.43;3.40;;;7.30;99.90;;;;;;5011339;28;20405;-73
2020/12/14 07:35:20;;;;;;;7.97;3.95;;;7.40;99.90;;;;;;5002364;28;20061;-74
2020/12/14 07:37:51;;;;;;;;;;;7.40;99.90;;;;;;4989038;28;20119;-74
2020/12/14 07:40:17;;;;;;;5.38;3.30;;;7.50;99.90;;;;;;5011825;28;19928;-75
2020/12/14 07:42:44;;;;;;;10.68;4.47;;;7.30;99.90;;;;;;5005365;28;20081;-74
2020/12/14 07:45:17;;;;;;;6.90;3.60;;;7.30;99.90;;;;;;5006357;28;20050;-74
2020/12/14 07:47:46;;;;;;;5.75;3.72;;;7.40;99.90;;;;;;4990527;28;20081;-74
2020/12/14 07:50:21;;;;;;;8.48;3.85;;;7.40;99.90;;;;;;5013483;28;20105;-74
2020/12/14 07:52:49;;;;;;;6.43;3.35;;;7.40;99.90;;;;;;4998492;28;20049;-73
2020/12/14 07:55:17;;;;;;;7.47;3.58;;;7.50;99.90;;;;;;5008136;28;20046;-73
2020/12/14 07:57:46;;;;;;;5.95;3.15;;;7.50;99.90;;;;;;5004463;28;20485;-73
2020/12/14 08:00:15;;;;;;;7.35;3.42;;;7.50;99.90;;;;;;5010331;28;20046;-73
2020/12/14 08:02:43;;;;;;;6.35;3.53;;;7.60;99.90;;;;;;4987587;28;20057;-73
2020/12/14 08:05:15;;;;;;;5.75;3.40;;;7.30;99.90;;;;;;5007918;28;20058;-74
2020/12/14 08:07:48;;;;;;;7.40;3.88;;;7.50;99.90;;;;;;5000758;28;20133;-75
2020/12/14 08:10:30;;;;;;;9.43;4.18;;;7.50;99.90;;;;;;5003242;28;20140;-73
2020/12/14 08:13:02;;;;;;;5.90;3.60;;;7.50;99.90;;;;;;5006970;28;20053;-73
2020/12/14 08:15:30;;;;;;;6.10;4.03;;;7.50;99.90;;;;;;4994223;28;20057;-73
2020/12/14 08:18:04;;;;;;;10.02;4.03;;;7.60;99.90;;;;;;5011219;28;20049;-74
2020/12/14 08:20:32;;;;;;;9.27;3.88;;;7.60;99.90;;;;;;5005332;28;20046;-74
2020/12/14 08:23:00;;;;;;;8.07;3.90;;;7.50;99.90;;;;;;5001598;28;20061;-74
2020/12/14 08:25:32;;;;;;;6.50;3.88;;;7.60;99.90;;;;;;4993138;28;20046;-74
2020/12/14 08:28:03;;;;;;;11.65;4.38;;;7.60;99.90;;;;;;4990110;28;20064;-74
2020/12/14 08:30:34;;;;;;;14.75;6.80;;;7.40;99.80;;;;;;5008076;28;20060;-74
2020/12/14 08:33:13;;;;;;;14.15;4.47;;;7.50;99.90;;;;;;4996177;28;20049;-73
2020/12/14 08:35:41;;;;;;;9.93;4.85;;;7.50;99.90;;;;;;5005812;28;20409;-74
2020/12/14 08:38:11;;;;;;;11.73;4.50;;;7.60;99.90;;;;;;4991978;28;20065;-74
2020/12/14 08:40:39;;;;;;;9.02;4.50;;;7.60;99.70;;;;;;5009031;28;20049;-74
2020/12/14 08:43:07;;;;;;;7.95;3.97;;;7.60;99.60;;;;;;4983095;28;20146;-74
2020/12/14 08:45:34;;;;;;;6.97;3.67;;;7.70;99.50;;;;;;5006032;28;20066;-74
2020/12/14 08:48:01;;;;;;;6.65;3.80;;;7.70;99.00;;;;;;5006003;28;20057;-74
2020/12/14 08:50:30;;;;;;;8.40;3.78;;;7.70;99.40;;;;;;5007873;28;20067;-74
2020/12/14 08:53:03;;;;;;;6.13;3.65;;;7.90;99.10;;;;;;5001565;28;20048;-74
2020/12/14 08:55:40;;;;;;;7.20;4.00;;;8.00;98.90;;;;;;4990794;28;20054;-74
2020/12/14 08:58:07;;;;;;;8.00;3.75;;;8.00;99.10;;;;;;4993507;28;20057;-73
2020/12/14 09:00:34;;;;;;;8.02;3.65;;;8.00;98.70;;;;;;5000595;28;20054;-71
2020/12/14 09:03:02;;;;;;;5.95;3.40;;;8.10;98.70;;;;;;5005939;28;20354;-72
2020/12/14 09:05:33;;;;;;;7.60;3.72;;;7.90;98.60;;;;;;4987837;28;20076;-70
2020/12/14 09:08:16;;;;;;;6.20;3.38;;;7.90;98.60;;;;;;5007271;28;20045;-73
2020/12/14 09:10:59;;;;;;;11.80;3.97;;;7.90;98.80;;;;;;4993738;28;20049;-73
2020/12/14 09:13:25;;;;;;;8.05;3.95;;;8.00;98.70;;;;;;5004369;28;20492;-74
2020/12/14 09:15:53;;;;;;;6.90;3.60;;;8.00;98.80;;;;;;5000376;28;20074;-73
2020/12/14 09:18:20;;;;;;;9.68;3.33;;;8.10;98.40;;;;;;4977301;28;20053;-72
2020/12/14 09:20:47;;;;;;;6.00;3.60;;;8.10;98.40;;;;;;5000441;28;20054;-73
2020/12/14 09:23:19;;;;;;;8.13;3.30;;;8.10;98.20;;;;;;4988116;28;20132;-74
2020/12/14 09:25:45;;;;;;;6.68;3.20;;;8.10;98.30;;;;;;4982985;28;20401;-73
2020/12/14 09:28:12;;;;;;;5.45;3.90;;;8.20;98.10;;;;;;5001282;28;20053;-73
2020/12/14 09:30:39;;;;;;;5.97;3.65;;;8.20;98.10;;;;;;4982709;28;20056;-74
2020/12/14 09:33:05;;;;;;;6.50;3.60;;;8.20;98.10;;;;;;4998046;28;20494;-73
2020/12/14 09:35:32;;;;;;;6.45;3.30;;;8.30;98.10;;;;;;5003695;28;20721;-73
2020/12/14 09:37:58;;;;;;;5.07;3.20;;;8.20;98.00;;;;;;5003425;28;20058;-73
2020/12/14 09:40:25;;;;;;;5.65;3.20;;;8.10;97.80;;;;;;5002190;28;20057;-74
2020/12/14 09:42:51;;;;;;;5.55;3.28;;;8.20;97.90;;;;;;5002829;28;20054;-73
2020/12/14 09:45:18;;;;;;;5.55;2.83;;;8.30;98.00;;;;;;5007762;28;20057;-73
2020/12/14 09:47:47;;;;;;;5.97;3.83;;;8.20;97.70;;;;;;4997224;28;20045;-73
2020/12/14 09:50:14;;;;;;;8.57;3.57;;;8.20;97.40;;;;;;5005662;28;20076;-73
2020/12/14 09:52:41;;;;;;;6.28;3.75;;;8.30;97.90;;;;;;5002064;28;20054;-72
2020/12/14 09:55:07;;;;;;;6.25;3.17;;;8.40;97.70;;;;;;4999222;28;20050;-71
2020/12/14 09:57:34;;;;;;;5.55;3.08;;;8.50;97.70;;;;;;5001895;28;20050;-73
2020/12/14 10:00:00;;;;;;;7.57;3.58;;;8.60;97.80;;;;;;4989425;28;20058;-76
2020/12/14 10:02:27;;;;;;;5.43;3.40;;;8.70;97.70;;;;;;5004851;28;20046;-72
2020/12/14 10:05:08;;;;;;;4.93;3.22;;;8.70;97.80;;;;;;4998994;28;20050;-73
2020/12/14 10:07:34;;;;;;;11.38;4.25;;;8.70;97.60;;;;;;4992175;28;20050;-71
2020/12/14 10:10:01;;;;;;;8.50;3.50;;;8.80;97.50;;;;;;4984687;28;20140;-72
2020/12/14 10:12:29;;;;;;;8.27;3.78;;;8.70;97.40;;;;;;4991549;28;20046;-71
2020/12/14 10:14:56;;;;;;;7.18;3.63;;;8.60;97.60;;;;;;5003700;28;20493;-72
2020/12/14 10:17:23;;;;;;;7.85;3.63;;;8.40;97.80;;;;;;4999405;28;20065;-73
2020/12/14 10:19:49;;;;;;;6.70;3.80;;;8.50;98.10;;;;;;4990401;28;20132;-72
2020/12/14 10:22:16;;;;;;;6.45;3.97;;;8.70;97.80;;;;;;5005893;28;20046;-73
2020/12/14 10:24:42;;;;;;;6.28;3.38;;;8.50;97.80;;;;;;5006166;28;20037;-73
2020/12/14 10:27:09;;;;;;;5.93;3.90;;;8.60;98.00;;;;;;5005335;28;20046;-74
2020/12/14 10:29:35;;;;;;;6.40;3.55;;;8.80;97.80;;;;;;5005615;28;20061;-73
2020/12/14 10:32:01;;;;;;;8.90;3.88;;;8.70;97.60;;;;;;5005107;28;20047;-73
2020/12/14 10:34:28;;;;;;;6.30;3.72;;;8.80;97.50;;;;;;5002727;28;20057;-73
2020/12/14 10:36:54;;;;;;;9.52;3.80;;;8.80;97.60;;;;;;5002225;28;20046;-74
2020/12/14 10:39:21;;;;;;;6.60;3.78;;;8.90;97.20;;;;;;5007721;28;20083;-73
2020/12/14 10:41:50;;;;;;;6.60;3.45;;;8.70;97.20;;;;;;5002157;28;20046;-72
2020/12/14 10:44:17;;;;;;;7.10;3.70;;;8.70;97.20;;;;;;5002094;28;20054;-70
2020/12/14 10:46:43;;;;;;;9.48;3.67;;;8.60;97.10;;;;;;4987527;28;20050;-72
2020/12/14 10:49:11;;;;;;;7.03;3.95;;;8.50;97.50;;;;;;5005558;28;20093;-71
2020/12/14 10:51:37;;;;;;;4.97;3.45;;;8.60;97.50;;;;;;5004295;28;20054;-72
2020/12/14 10:54:04;;;;;;;8.73;3.92;;;8.70;97.30;;;;;;5002719;28;20058;-71
2020/12/14 10:56:30;;;;;;;5.47;3.55;;;8.70;97.00;;;;;;4984773;28;21910;-72
2020/12/14 10:58:57;;;;;;;9.75;4.13;;;8.70;97.20;;;;;;5006346;28;20056;-72
2020/12/14 11:01:23;;;;;;;6.30;3.58;;;8.60;97.30;;;;;;5004867;28;20056;-71
2020/12/14 11:03:50;;;;;;;8.48;3.50;;;8.70;97.40;;;;;;5000507;28;20449;-71
2020/12/14 11:06:16;;;;;;;7.28;3.58;;;8.70;97.00;;;;;;5004183;28;20057;-71
2020/12/14 11:08:46;;;;;;;10.38;3.55;;;8.80;97.30;;;;;;5001529;28;20505;-71
2020/12/14 11:11:14;;;;;;;;;;;8.80;97.10;;;;;;5000845;28;20054;-72
2020/12/14 11:13:40;;;;;;;7.95;3.38;;;8.80;96.90;;;;;;4999006;28;20296;-72
2020/12/14 11:16:07;;;;;;;6.85;3.65;;;8.70;97.00;;;;;;4993990;28;20497;-73
2020/12/14 11:18:33;;;;;;;6.97;3.53;;;8.70;97.30;;;;;;5009313;28;20069;-72
2020/12/14 11:21:00;;;;;;;7.88;3.40;;;8.80;97.50;;;;;;4988829;28;20052;-72
2020/12/14 11:23:27;;;;;;;7.35;3.42;;;9.00;97.20;;;;;;4999311;28;20441;-72
2020/12/14 11:25:54;;;;;;;6.65;3.85;;;9.10;96.90;;;;;;5006476;28;20133;-72
2020/12/14 11:28:21;;;;;;;7.50;3.50;;;9.10;96.70;;;;;;5002947;28;20493;-72
2020/12/14 11:30:47;;;;;;;6.55;3.92;;;9.00;96.60;;;;;;5005046;28;20057;-72
2020/12/14 11:33:14;;;;;;;6.47;3.60;;;9.00;96.70;;;;;;5007654;28;20464;-70
2020/12/14 11:35:40;;;;;;;6.95;3.90;;;9.00;96.60;;;;;;5004935;28;20054;-71
2020/12/14 11:38:07;;;;;;;5.30;3.85;;;9.00;96.80;;;;;;5004364;28;20060;-72
2020/12/14 11:40:33;;;;;;;5.82;3.53;;;9.20;96.80;;;;;;5006331;28;20047;-71
2020/12/14 11:43:00;;;;;;;8.48;3.58;;;9.20;96.60;;;;;;5003603;28;20057;-71
2020/12/14 11:45:42;;;;;;;8.18;3.70;;;9.10;96.10;;;;;;4995326;28;20107;-71
2020/12/14 11:48:09;;;;;;;7.28;3.63;;;9.10;96.10;;;;;;5004765;28;20382;-71
2020/12/14 11:50:36;;;;;;;7.53;3.75;;;9.10;96.00;;;;;;5005778;28;20050;-72
2020/12/14 11:53:02;;;;;;;6.57;3.40;;;9.10;95.80;;;;;;5002214;28;20049;-72
2020/12/14 11:55:30;;;;;;;5.38;3.10;;;9.00;96.10;;;;;;5002181;28;20050;-72
2020/12/14 11:57:56;;;;;;;6.85;3.45;;;9.20;96.20;;;;;;5004731;28;20076;-72
2020/12/14 12:00:23;;;;;;;11.30;3.60;;;9.40;96.00;;;;;;5005668;28;20772;-74
2020/12/14 12:02:49;;;;;;;5.45;3.20;;;9.40;96.00;;;;;;5005225;28;20046;-73
2020/12/14 12:05:16;;;;;;;7.15;3.67;;;9.10;95.70;;;;;;4990187;28;20137;-72
2020/12/14 12:07:42;;;;;;;6.80;3.67;;;9.30;96.10;;;;;;4983959;28;20576;-72
2020/12/14 12:10:09;;;;;;;4.68;3.58;;;9.40;96.00;;;;;;5007407;28;20057;-72
2020/12/14 12:12:37;;;;;;;7.03;3.40;;;9.30;95.70;;;;;;5003777;28;20050;-72
2020/12/14 12:15:05;;;;;;;8.02;3.60;;;9.50;95.90;;;;;;5002800;28;20109;-72
2020/12/14 12:17:32;;;;;;;5.03;3.00;;;9.70;95.30;;;;;;5002666;28;20057;-72
2020/12/14 12:19:58;;;;;;;6.35;3.78;;;9.50;95.00;;;;;;5001507;28;20050;-73
2020/12/14 12:22:25;;;;;;;8.55;3.33;;;9.50;95.00;;;;;;5002579;28;20046;-72
2020/12/14 12:24:51;;;;;;;6.55;3.47;;;9.40;95.10;;;;;;5004492;28;20050;-71
2020/12/14 12:27:28;;;;;;;8.60;3.80;;;9.40;95.00;;;;;;4989056;28;20504;-73
2020/12/14 12:29:54;;;;;;;6.47;3.28;;;9.30;95.40;;;;;;5007104;28;20496;-73
2020/12/14 12:32:21;;;;;;;7.47;3.60;;;9.50;95.50;;;;;;5001226;28;20050;-74
2020/12/14 12:34:48;;;;;;;7.25;3.78;;;9.60;95.20;;;;;;5006785;28;20050;-73
2020/12/14 12:37:18;;;;;;;9.32;3.88;;;9.50;95.00;;;;;;5000836;28;20053;-72
2020/12/14 12:39:45;;;;;;;9.80;4.00;;;9.50;95.10;;;;;;5003114;28;20046;-73
2020/12/14 12:42:11;;;;;;;9.00;4.18;;;9.20;95.20;;;;;;5002493;28;20050;-72
2020/12/14 12:44:38;;;;;;;8.07;4.25;;;9.50;95.40;;;;;;5002313;28;20049;-73
2020/12/14 12:47:07;;;;;;;7.07;4.03;;;9.60;95.40;;;;;;5001673;28;20056;-73
2020/12/14 12:49:34;;;;;;;6.60;3.72;;;9.60;95.30;;;;;;4987320;28;20045;-73
2020/12/14 12:52:01;;;;;;;7.30;4.40;;;9.70;95.40;;;;;;4985005;28;20051;-73
2020/12/14 12:54:28;;;;;;;9.85;4.65;;;9.50;95.40;;;;;;5003044;28;20058;-73
2020/12/14 12:56:56;;;;;;;12.30;5.20;;;9.70;95.70;;;;;;5003990;28;20135;-73
2020/12/14 12:59:23;;;;;;;10.82;5.40;;;9.40;96.00;;;;;;5000055;28;20069;-72
2020/12/14 13:01:53;;;;;;;9.98;5.05;;;9.40;96.40;;;;;;4999552;28;20050;-73
2020/12/14 13:04:19;;;;;;;;;;;9.40;96.40;;;;;;4997814;28;20800;-73